Castlederg, United Kingdom
Current Conditions -  °F | °C
As of 3:20 PM on Wednesday 22 Oct 2014 (Local Time) from EGAE Reporting Station
Scattered Clouds Scattered Clouds  
Wind Chill: 57°   Ceiling: Unl
Heat Index: 57°   Visibility: 6mi
Dew Point: 50°   Wind: 22mph
Humidity: 77%   Direction: 230°SW
Pressure: 30"   Gusts: NA
Location:  54.7°N, 7.6°W
Report Text: EGAE 221420Z 23019KT 9999 SCT028 14/10 Q1016
Loading
Personal Weather Stations






























Interactive Weather Map
Tropical Storm Tracking
New forecast layout! Learn more

10-Day Weather Forecast

Advertisements
Track Severe Weather on mobile